createdAt,value
2022-12-23T00:02:00.893Z,28.73
2022-12-23T00:04:03.387Z,27.25
2022-12-23T00:06:09.752Z,37.33
2022-12-23T00:08:14.792Z,30.10
2022-12-23T00:10:17.359Z,34.90
2022-12-23T00:12:38.496Z,34.80
2022-12-23T00:14:59.451Z,35.22
2022-12-23T00:17:01.944Z,36.92
2022-12-23T00:19:04.996Z,40.17
2022-12-23T00:21:09.907Z,38.72
2022-12-23T00:23:15.044Z,36.22
2022-12-23T00:25:17.737Z,37.70
2022-12-23T00:27:20.387Z,43.08
2022-12-23T00:29:23.173Z,36.78
2022-12-23T00:31:29.978Z,44.88
2022-12-23T00:33:37.187Z,43.47
2022-12-23T00:35:39.707Z,40.50
2022-12-23T00:37:42.267Z,42.72
2022-12-23T00:40:07.173Z,35.78
2022-12-23T00:42:30.541Z,42.85
2022-12-23T00:44:33.244Z,36.55
2022-12-23T00:46:35.804Z,36.50
2022-12-23T00:48:57.147Z,50.25
2022-12-23T00:51:02.038Z,40.50
2022-12-23T00:53:04.894Z,45.45
2022-12-23T00:55:10.452Z,41.95
2022-12-23T00:57:17.357Z,44.28
2022-12-23T00:59:20.153Z,55.20
2022-12-23T01:01:41.611Z,49.80
2022-12-23T01:04:04.817Z,39.03
2022-12-23T01:06:07.659Z,49.30
2022-12-23T01:08:12.192Z,41.63
2022-12-23T01:10:20.299Z,43.28
2022-12-23T01:12:23.166Z,43.88
2022-12-23T01:14:29.033Z,51.63
2022-12-23T01:16:31.816Z,47.40
2022-12-23T01:18:34.829Z,41.80
2022-12-23T01:20:38.203Z,38.13
2022-12-23T01:22:46.650Z,39.17
2022-12-23T01:24:49.241Z,41.70
2022-12-23T01:26:56.674Z,40.92
2022-12-23T01:29:01.719Z,32.60
2022-12-23T01:31:05.924Z,46.67
2022-12-23T01:33:10.754Z,37.92
2022-12-23T01:35:13.188Z,41.15
2022-12-23T01:37:15.749Z,34.45
2022-12-23T01:39:18.652Z,36.72
2022-12-23T01:41:42.681Z,31.85
2022-12-23T01:43:49.604Z,41.10
2022-12-23T01:45:52.472Z,42.10
2022-12-23T01:48:01.603Z,49.20
2022-12-23T01:50:11.205Z,52.42
2022-12-23T01:52:14.177Z,51.75
2022-12-23T01:54:16.764Z,70.03
2022-12-23T01:56:24.785Z,49.90
2022-12-23T01:58:32.064Z,44.47
2022-12-23T02:00:58.117Z,47.33
2022-12-23T02:03:19.423Z,45.88
2022-12-23T02:05:23.086Z,44.42
2022-12-23T02:07:54.361Z,44.33
2022-12-23T02:09:57.021Z,41.15
2022-12-23T02:12:25.892Z,35.83
2022-12-23T02:15:02.486Z,36.05
2022-12-23T02:17:16.373Z,40.28
2022-12-23T02:19:36.864Z,40.75
2022-12-23T02:21:57.933Z,37.75
2022-12-23T02:24:36.209Z,41.17
2022-12-23T02:27:09.799Z,37.53
2022-12-23T02:29:42.588Z,44.50
2022-12-23T02:32:00.469Z,35.28
2022-12-23T02:34:11.234Z,36.78
2022-12-23T02:36:30.189Z,43.40
2022-12-23T02:38:39.153Z,40.15
2022-12-23T02:40:47.101Z,30.63
2022-12-23T02:42:59.556Z,37.53
2022-12-23T02:45:07.879Z,46.42
2022-12-23T02:47:19.384Z,38.10
2022-12-23T02:49:27.875Z,34.22
2022-12-23T02:51:36.995Z,44.30
2022-12-23T02:53:45.971Z,44.78
2022-12-23T02:55:50.545Z,45.40
2022-12-23T02:57:55.238Z,42.53
2022-12-23T03:00:01.839Z,37.05
2022-12-23T03:02:04.394Z,37.17
2022-12-23T03:04:09.557Z,41.55
2022-12-23T03:06:20.400Z,37.60
2022-12-23T03:08:37.424Z,39.55
2022-12-23T03:10:52.373Z,44.17
2022-12-23T03:13:04.162Z,42.58
2022-12-23T03:15:17.780Z,41.88
2022-12-23T03:17:34.949Z,44.85
2022-12-23T03:19:47.376Z,40.00
2022-12-23T03:22:00.256Z,38.58
2022-12-23T03:24:15.498Z,41.45
2022-12-23T03:26:22.125Z,43.63
2022-12-23T03:28:30.210Z,37.88
2022-12-23T03:30:34.698Z,40.90
2022-12-23T03:32:44.046Z,30.13
2022-12-23T03:34:53.793Z,38.60
2022-12-23T03:36:58.932Z,35.75
2022-12-23T03:39:11.190Z,35.60
2022-12-23T03:41:19.148Z,37.15
2022-12-23T03:43:25.666Z,37.08
2022-12-23T03:45:39.432Z,30.15
2022-12-23T03:47:46.785Z,40.25
2022-12-23T03:49:55.991Z,29.05
2022-12-23T03:52:03.913Z,36.92
2022-12-23T03:54:16.852Z,38.30
2022-12-23T03:56:25.169Z,32.88
2022-12-23T03:58:35.397Z,39.20
2022-12-23T04:00:48.194Z,34.20
2022-12-23T04:02:59.130Z,39.47
2022-12-23T04:05:16.586Z,32.85
2022-12-23T04:07:34.289Z,42.40
2022-12-23T04:09:38.129Z,37.45
2022-12-23T04:11:41.014Z,48.80
2022-12-23T04:13:43.836Z,35.97
2022-12-23T04:15:46.673Z,42.17
2022-12-23T04:17:50.400Z,47.20
2022-12-23T04:19:53.945Z,40.70
2022-12-23T04:21:59.149Z,40.70
2022-12-23T04:24:01.592Z,47.47
2022-12-23T04:26:04.446Z,44.72
2022-12-23T04:28:09.555Z,41.20
2022-12-23T04:30:13.960Z,59.50
2022-12-23T04:32:16.413Z,50.30
2022-12-23T04:34:18.925Z,39.72
2022-12-23T04:36:23.633Z,51.22
2022-12-23T04:38:28.794Z,47.67
2022-12-23T04:40:31.299Z,46.83
2022-12-23T04:42:34.236Z,43.20
2022-12-23T04:44:37.437Z,45.83
2022-12-23T04:46:39.963Z,46.10
2022-12-23T04:48:42.631Z,41.50
2022-12-23T04:50:45.215Z,46.40
2022-12-23T04:52:47.706Z,40.63
2022-12-23T04:54:52.783Z,39.45
2022-12-23T04:56:55.380Z,42.90
2022-12-23T04:59:02.489Z,47.80
2022-12-23T05:01:07.441Z,45.63
2022-12-23T05:03:10.221Z,44.15
2022-12-23T05:05:12.897Z,58.30
2022-12-23T05:07:15.367Z,55.25
2022-12-23T05:09:19.965Z,125.65
2022-12-23T05:11:25.101Z,138.23
2022-12-23T05:13:27.486Z,165.00
2022-12-23T05:15:34.281Z,136.23
2022-12-23T05:17:36.744Z,119.50
2022-12-23T05:19:39.441Z,105.72
2022-12-23T05:21:41.967Z,108.10
2022-12-23T05:23:44.534Z,79.43
2022-12-23T05:25:54.132Z,109.78
2022-12-23T05:27:59.226Z,71.35
2022-12-23T05:30:01.689Z,163.00
2022-12-23T05:32:04.943Z,168.52
2022-12-23T05:34:07.757Z,174.93
2022-12-23T05:36:11.754Z,187.75
2022-12-23T05:38:14.345Z,247.27
2022-12-23T05:40:24.118Z,196.50
2022-12-23T05:42:28.464Z,220.52
2022-12-23T05:44:33.780Z,175.57
2022-12-23T05:46:37.139Z,197.63
2022-12-23T05:48:40.771Z,167.98
2022-12-23T05:50:49.908Z,161.10
2022-12-23T05:52:52.458Z,110.07
2022-12-23T05:54:54.970Z,93.57
2022-12-23T05:56:59.470Z,151.60
2022-12-23T05:59:03.021Z,94.65
2022-12-23T06:01:11.447Z,65.68
2022-12-23T06:03:14.569Z,91.25
2022-12-23T06:05:17.182Z,56.20
2022-12-23T06:07:19.776Z,47.70
2022-12-23T06:09:22.528Z,79.10
2022-12-23T06:11:25.097Z,89.03
2022-12-23T06:13:28.770Z,47.20
2022-12-23T06:15:31.161Z,56.72
2022-12-23T06:17:36.642Z,83.55
2022-12-23T06:19:39.209Z,45.15
2022-12-23T06:21:43.710Z,44.70
2022-12-23T06:23:47.437Z,109.38
2022-12-23T06:25:49.919Z,72.95
2022-12-23T06:27:52.479Z,62.42
2022-12-23T06:29:56.368Z,83.47
2022-12-23T06:32:01.503Z,105.18
2022-12-23T06:34:06.550Z,149.95
2022-12-23T06:36:09.769Z,200.20
2022-12-23T06:38:12.769Z,233.32
2022-12-23T06:40:17.999Z,197.07
2022-12-23T06:42:20.859Z,242.25
2022-12-23T06:44:23.308Z,222.70
2022-12-23T06:46:28.329Z,289.52
2022-12-23T06:48:40.701Z,169.77
2022-12-23T06:50:46.517Z,188.00
2022-12-23T06:52:50.765Z,303.50
2022-12-23T06:54:53.505Z,300.60
2022-12-23T06:56:59.777Z,155.25
2022-12-23T06:59:02.083Z,168.90
2022-12-23T07:01:06.654Z,142.98
2022-12-23T07:03:12.770Z,178.93
2022-12-23T07:05:19.657Z,143.05
2022-12-23T07:07:24.752Z,88.28
2022-12-23T07:09:27.155Z,189.82
2022-12-23T07:11:30.111Z,209.95
2022-12-23T07:13:33.510Z,85.07
2022-12-23T07:15:36.951Z,100.13
2022-12-23T07:17:39.467Z,146.47
2022-12-23T07:19:42.037Z,113.30
2022-12-23T07:21:44.810Z,92.00
2022-12-23T07:23:49.861Z,114.53
2022-12-23T07:25:52.373Z,116.60
2022-12-23T07:27:55.489Z,101.15
2022-12-23T07:30:01.088Z,70.65
2022-12-23T07:32:04.158Z,109.93
2022-12-23T07:34:06.698Z,70.10
2022-12-23T07:36:09.890Z,85.30
2022-12-23T07:38:12.372Z,39.83
2022-12-23T07:40:18.004Z,91.32
2022-12-23T07:44:45.544Z,43.67
2022-12-23T07:46:48.255Z,37.38
2022-12-23T07:51:00.418Z,33.45
2022-12-23T07:53:02.952Z,41.38
2022-12-23T07:55:08.660Z,36.42
2022-12-23T07:57:15.121Z,34.70
2022-12-23T07:59:17.751Z,35.78
2022-12-23T08:01:26.353Z,34.75
2022-12-23T08:03:29.301Z,28.85
2022-12-23T08:05:32.088Z,46.00
2022-12-23T08:07:37.118Z,45.00
2022-12-23T08:09:39.635Z,33.00
2022-12-23T08:11:42.227Z,37.20
2022-12-23T08:13:48.539Z,34.80
2022-12-23T08:15:55.150Z,42.83
2022-12-23T08:17:57.714Z,41.53
2022-12-23T08:20:01.047Z,41.50
2022-12-23T08:22:03.700Z,44.78
2022-12-23T08:24:06.888Z,37.38
2022-12-23T08:26:11.140Z,36.55
2022-12-23T08:28:13.827Z,40.90
2022-12-23T08:30:21.255Z,35.13
2022-12-23T08:32:27.208Z,31.55
2022-12-23T08:34:29.721Z,27.83
2022-12-23T08:36:36.105Z,35.28
2022-12-23T08:38:38.819Z,38.10
2022-12-23T08:40:41.436Z,29.27
2022-12-23T08:42:45.201Z,35.25
2022-12-23T08:44:47.743Z,33.75
2022-12-23T08:46:53.461Z,33.92
2022-12-23T08:48:58.326Z,35.58
2022-12-23T08:51:05.128Z,38.70
2022-12-23T08:53:07.739Z,30.90
2022-12-23T08:55:10.799Z,33.42
2022-12-23T08:57:13.328Z,25.25
2022-12-23T08:59:19.671Z,39.20
2022-12-23T09:01:30.851Z,34.50
2022-12-23T09:03:37.408Z,42.95
2022-12-23T09:05:48.814Z,43.60
2022-12-23T09:07:51.357Z,52.05
2022-12-23T09:09:53.715Z,55.00
2022-12-23T09:14:01.445Z,38.75
2022-12-23T09:16:04.632Z,45.88
2022-12-23T09:18:18.511Z,40.45
2022-12-23T09:20:23.663Z,62.05
2022-12-23T09:22:26.122Z,53.70
2022-12-23T09:24:29.376Z,58.00
2022-12-23T09:26:33.129Z,91.22
2022-12-23T09:28:35.978Z,39.00
2022-12-23T09:30:38.432Z,70.82
2022-12-23T09:32:40.899Z,54.53
2022-12-23T09:34:43.361Z,51.65
2022-12-23T09:36:54.872Z,66.95
2022-12-23T09:39:01.240Z,40.90
2022-12-23T09:41:09.594Z,47.75
2022-12-23T09:43:23.269Z,58.03
2022-12-23T09:45:44.962Z,25.67
2022-12-23T09:47:47.784Z,63.10
2022-12-23T09:49:55.070Z,35.25
2022-12-23T09:52:03.772Z,42.42
2022-12-23T09:54:17.392Z,67.97
2022-12-23T09:56:27.637Z,23.55
2022-12-23T09:58:38.229Z,31.10
2022-12-23T10:00:49.003Z,43.67
2022-12-23T10:03:02.461Z,35.00
2022-12-23T10:05:21.592Z,29.40
2022-12-23T10:07:35.365Z,30.25
2022-12-23T10:09:41.653Z,29.40
2022-12-23T10:11:47.220Z,37.50
2022-12-23T10:13:52.517Z,26.27
2022-12-23T10:15:58.391Z,31.90
2022-12-23T10:18:05.478Z,28.95
2022-12-23T10:20:14.995Z,60.53
2022-12-23T10:22:28.428Z,71.28
2022-12-23T10:24:40.923Z,42.95
2022-12-23T10:26:48.873Z,59.08
2022-12-23T10:28:59.136Z,24.85
2022-12-23T10:33:46.997Z,24.67
2022-12-23T10:36:01.366Z,22.98
2022-12-23T10:38:12.787Z,30.45
2022-12-23T10:40:22.827Z,22.80
2022-12-23T10:42:33.505Z,18.58
2022-12-23T10:45:04.760Z,20.65
2022-12-23T10:47:23.095Z,22.10
2022-12-23T10:49:34.562Z,22.95
2022-12-23T10:51:46.478Z,21.77
2022-12-23T10:53:55.315Z,20.02
2022-12-23T10:56:01.688Z,21.23
2022-12-23T10:58:09.319Z,38.17
2022-12-23T11:00:19.986Z,22.60
2022-12-23T11:02:38.080Z,23.73
2022-12-23T11:04:45.461Z,22.33
2022-12-23T11:07:10.617Z,17.67
2022-12-23T11:09:40.094Z,19.52
2022-12-23T11:12:01.001Z,14.95
2022-12-23T11:14:06.249Z,14.82
2022-12-23T11:16:15.229Z,14.43
2022-12-23T11:18:20.260Z,17.17
2022-12-23T11:20:22.764Z,17.15
2022-12-23T11:22:25.854Z,19.98
2022-12-23T11:24:36.582Z,18.02
2022-12-23T11:26:43.172Z,14.48
2022-12-23T11:29:08.268Z,18.13
2022-12-23T11:31:14.736Z,19.25
2022-12-23T11:33:24.268Z,16.67
2022-12-23T11:35:29.650Z,14.05
2022-12-23T11:37:37.103Z,16.85
2022-12-23T11:39:47.185Z,14.75
2022-12-23T11:41:53.081Z,19.05
2022-12-23T11:44:05.337Z,17.45
2022-12-23T11:46:15.603Z,16.17
2022-12-23T11:48:28.450Z,14.30
2022-12-23T11:50:34.633Z,17.95
2022-12-23T11:52:49.416Z,16.23
2022-12-23T11:54:57.788Z,17.48
2022-12-23T11:57:07.437Z,19.27
2022-12-23T11:59:32.641Z,18.23
2022-12-23T12:01:36.791Z,18.77
2022-12-23T12:03:46.866Z,21.40
2022-12-23T12:05:53.216Z,22.02
2022-12-23T12:08:00.266Z,21.48
2022-12-23T12:10:03.527Z,19.67
2022-12-23T12:12:13.279Z,22.93
2022-12-23T12:14:26.791Z,19.60
2022-12-23T12:16:46.679Z,21.08
2022-12-23T12:18:55.445Z,23.42
2022-12-23T12:21:04.030Z,21.05
2022-12-23T12:23:13.355Z,18.80
2022-12-23T12:25:21.405Z,19.20
2022-12-23T12:27:34.961Z,17.52
2022-12-23T12:29:46.974Z,19.00
2022-12-23T12:31:52.525Z,18.65
2022-12-23T12:34:02.455Z,16.58
2022-12-23T12:36:14.435Z,25.00
2022-12-23T12:38:34.668Z,20.70
2022-12-23T12:40:49.799Z,22.27
2022-12-23T12:42:57.650Z,15.65
2022-12-23T12:45:14.451Z,25.65
2022-12-23T12:49:53.246Z,23.83
2022-12-23T12:52:03.895Z,17.05
2022-12-23T12:54:14.439Z,27.73
2022-12-23T12:56:27.235Z,18.75
2022-12-23T12:58:32.281Z,18.10
2022-12-23T13:00:46.035Z,22.42
2022-12-23T13:03:23.382Z,18.52
2022-12-23T13:05:54.386Z,20.95
2022-12-23T13:08:13.519Z,18.75
2022-12-23T13:10:25.416Z,19.23
2022-12-23T13:12:43.498Z,21.13
2022-12-23T13:14:55.180Z,20.70
2022-12-23T13:17:07.537Z,24.15
2022-12-23T13:19:20.082Z,21.60
2022-12-23T13:21:29.080Z,24.17
2022-12-23T13:23:44.344Z,20.58
2022-12-23T13:25:54.599Z,26.75
2022-12-23T13:28:02.533Z,25.95
2022-12-23T13:30:13.284Z,22.75
2022-12-23T13:32:28.618Z,25.15
2022-12-23T13:34:41.848Z,26.77
2022-12-23T13:36:51.305Z,29.10
2022-12-23T13:39:11.399Z,20.80
2022-12-23T13:41:22.235Z,29.50
2022-12-23T13:43:39.141Z,27.00
2022-12-23T13:45:46.289Z,32.10
2022-12-23T13:48:06.662Z,27.23
2022-12-23T13:50:15.167Z,29.45
2022-12-23T13:52:24.857Z,24.80
2022-12-23T13:54:43.603Z,31.83
2022-12-23T13:56:49.910Z,20.90
2022-12-23T13:58:52.955Z,27.58
2022-12-23T14:01:18.918Z,27.83
2022-12-23T14:03:33.126Z,22.65
2022-12-23T14:05:38.159Z,23.77
2022-12-23T14:07:45.374Z,22.52
2022-12-23T14:09:52.233Z,19.30
2022-12-23T14:12:00.986Z,22.33
2022-12-23T14:14:07.285Z,29.48
2022-12-23T14:16:23.601Z,27.40
2022-12-23T14:18:48.213Z,20.83
2022-12-23T14:20:56.828Z,24.13
2022-12-23T14:23:10.343Z,23.73
2022-12-23T14:25:55.819Z,27.20
2022-12-23T14:28:07.643Z,27.95
2022-12-23T14:30:26.601Z,24.20
2022-12-23T14:32:36.176Z,27.52
2022-12-23T14:35:20.535Z,27.20
2022-12-23T14:37:36.276Z,27.25
2022-12-23T14:39:41.919Z,31.05
2022-12-23T14:41:50.730Z,26.15
2022-12-23T14:43:59.445Z,23.15
2022-12-23T14:46:06.576Z,35.13
2022-12-23T14:50:40.806Z,22.33
2022-12-23T14:52:59.754Z,15.00
2022-12-23T14:55:35.632Z,15.52
2022-12-23T14:57:38.483Z,19.10
2022-12-23T14:59:49.467Z,19.90
2022-12-23T15:01:54.104Z,19.02
2022-12-23T15:04:01.571Z,19.38
2022-12-23T15:06:15.251Z,17.23
2022-12-23T15:08:31.309Z,11.35
2022-12-23T15:10:34.178Z,16.85
2022-12-23T15:12:41.146Z,11.38
2022-12-23T15:14:47.477Z,17.58
2022-12-23T15:16:50.641Z,13.75
2022-12-23T15:18:54.922Z,14.52
2022-12-23T15:23:10.814Z,14.18
2022-12-23T15:25:21.846Z,14.98
2022-12-23T15:27:27.914Z,18.65
2022-12-23T15:29:34.137Z,15.07
2022-12-23T15:31:42.785Z,16.75
2022-12-23T15:34:04.674Z,15.07
2022-12-23T15:36:10.696Z,23.15
2022-12-23T15:38:19.851Z,14.13
2022-12-23T15:40:28.736Z,16.00
2022-12-23T15:42:32.343Z,18.45
2022-12-23T15:44:38.756Z,19.90
2022-12-23T15:46:41.763Z,21.90
2022-12-23T15:48:44.701Z,17.70
2022-12-23T15:50:47.946Z,21.88
2022-12-23T15:52:51.200Z,19.83
2022-12-23T15:54:59.889Z,23.85
2022-12-23T15:57:04.820Z,21.20
2022-12-23T15:59:21.186Z,23.23
2022-12-23T16:01:25.457Z,22.58
2022-12-23T16:03:33.979Z,27.95
2022-12-23T16:05:38.299Z,24.60
2022-12-23T16:09:44.484Z,21.25
2022-12-23T16:11:57.515Z,24.58
2022-12-23T16:14:02.345Z,21.90
2022-12-23T16:16:29.441Z,23.00
2022-12-23T16:18:34.429Z,25.52
2022-12-23T16:20:48.606Z,35.63
2022-12-23T16:22:53.131Z,18.57
2022-12-23T16:25:15.616Z,22.95
2022-12-23T16:27:31.530Z,25.13
2022-12-23T16:29:34.192Z,23.95
2022-12-23T16:31:37.753Z,26.15
2022-12-23T16:33:44.157Z,25.02
2022-12-23T16:35:46.565Z,26.20
2022-12-23T16:37:51.254Z,25.15
2022-12-23T16:39:55.676Z,21.35
2022-12-23T16:41:58.114Z,27.40
2022-12-23T16:44:04.219Z,28.73
2022-12-23T16:46:15.386Z,23.08
2022-12-23T16:48:23.059Z,21.67
2022-12-23T16:50:25.846Z,28.30
2022-12-23T16:52:28.356Z,23.45
2022-12-23T16:54:30.784Z,25.65
2022-12-23T16:56:37.476Z,23.33
2022-12-23T16:58:48.493Z,26.88
2022-12-23T17:00:53.844Z,29.15
2022-12-23T17:02:57.465Z,32.58
2022-12-23T17:05:00.814Z,31.55
2022-12-23T17:07:09.323Z,28.13
2022-12-23T17:09:12.228Z,21.85
2022-12-23T17:11:16.276Z,27.63
2022-12-23T17:13:19.241Z,21.17
2022-12-23T17:15:24.014Z,24.48
2022-12-23T17:17:29.164Z,28.70
2022-12-23T17:19:32.924Z,23.02
2022-12-23T17:21:37.308Z,23.55
2022-12-23T17:23:39.812Z,22.92
2022-12-23T17:25:42.214Z,23.20
2022-12-23T17:27:45.115Z,24.75
2022-12-23T17:29:47.873Z,18.15
2022-12-23T17:31:51.265Z,19.98
2022-12-23T17:33:56.534Z,22.67
2022-12-23T17:35:59.129Z,23.10
2022-12-23T17:38:01.558Z,23.13
2022-12-23T17:40:04.795Z,22.77
2022-12-23T17:42:07.310Z,23.90
2022-12-23T17:44:14.541Z,21.30
2022-12-23T17:46:17.038Z,22.77
2022-12-23T17:48:22.259Z,21.42
2022-12-23T17:50:33.557Z,26.08
2022-12-23T17:52:35.929Z,19.50
2022-12-23T17:54:38.429Z,20.52
2022-12-23T17:56:43.859Z,24.70
2022-12-23T17:58:48.891Z,21.67
2022-12-23T18:02:54.621Z,20.25
2022-12-23T18:04:57.267Z,19.23
2022-12-23T18:07:02.416Z,18.50
2022-12-23T18:09:04.998Z,19.25
2022-12-23T18:11:09.572Z,17.05
2022-12-23T18:13:17.065Z,23.38
2022-12-23T18:15:22.307Z,18.52
2022-12-23T18:17:24.899Z,16.48
2022-12-23T18:19:27.758Z,16.85
2022-12-23T18:21:33.159Z,24.23
2022-12-23T18:23:39.186Z,19.85
2022-12-23T18:25:41.973Z,23.50
2022-12-23T18:27:45.078Z,21.70
2022-12-23T18:29:48.716Z,21.48
2022-12-23T18:31:52.441Z,24.50
2022-12-23T18:33:55.130Z,22.45
2022-12-23T18:35:57.767Z,21.77
2022-12-23T18:38:05.730Z,21.45
2022-12-23T18:40:12.376Z,22.63
2022-12-23T18:42:20.096Z,22.30
2022-12-23T18:44:24.535Z,19.02
2022-12-23T18:46:27.240Z,20.08
2022-12-23T18:48:29.881Z,22.33
2022-12-23T18:50:32.948Z,23.90
2022-12-23T18:52:35.594Z,25.67
2022-12-23T18:54:38.311Z,20.90
2022-12-23T18:56:43.524Z,25.85
2022-12-23T18:58:46.185Z,24.08
2022-12-23T19:00:52.767Z,23.92
2022-12-23T19:02:57.351Z,24.20
2022-12-23T19:05:02.049Z,21.90
2022-12-23T19:07:04.566Z,22.05
2022-12-23T19:09:07.668Z,22.65
2022-12-23T19:11:11.744Z,23.77
2022-12-23T19:13:17.384Z,20.13
2022-12-23T19:15:23.239Z,21.15
2022-12-23T19:17:28.756Z,24.35
2022-12-23T19:19:31.680Z,25.15
2022-12-23T19:21:34.252Z,20.08
2022-12-23T19:23:37.863Z,21.70
2022-12-23T19:25:46.077Z,21.58
2022-12-23T19:27:54.935Z,22.45
2022-12-23T19:30:00.494Z,20.23
2022-12-23T19:32:03.117Z,20.55
2022-12-23T19:34:09.756Z,19.23
2022-12-23T19:36:19.591Z,22.35
2022-12-23T19:38:22.274Z,23.50
2022-12-23T19:40:24.825Z,26.70
2022-12-23T19:42:29.461Z,18.05
2022-12-23T19:44:31.936Z,23.48
2022-12-23T19:46:37.223Z,22.48
2022-12-23T19:48:40.199Z,21.88
2022-12-23T19:50:42.789Z,16.85
2022-12-23T19:52:45.301Z,23.58
2022-12-23T19:54:47.809Z,22.30
2022-12-23T19:56:54.136Z,17.55
2022-12-23T19:59:06.738Z,17.30
2022-12-23T20:01:25.882Z,17.52
2022-12-23T20:03:31.338Z,18.02
2022-12-23T20:05:33.957Z,18.17
2022-12-23T20:07:36.901Z,20.85
2022-12-23T20:09:39.557Z,20.38
2022-12-23T20:11:44.369Z,20.33
2022-12-23T20:13:54.678Z,22.48
2022-12-23T20:16:01.459Z,20.60
2022-12-23T20:18:05.562Z,20.13
2022-12-23T20:20:11.380Z,19.17
2022-12-23T20:22:14.050Z,20.90
2022-12-23T20:24:16.665Z,20.05
2022-12-23T20:26:19.988Z,25.67
2022-12-23T20:28:22.572Z,20.20
2022-12-23T20:30:27.860Z,19.33
2022-12-23T20:32:30.322Z,18.83
2022-12-23T20:34:38.665Z,31.27
2022-12-23T20:36:44.551Z,19.15
2022-12-23T20:38:47.635Z,19.60
2022-12-23T20:40:50.416Z,22.55
2022-12-23T20:42:53.001Z,22.88
2022-12-23T20:44:55.403Z,21.23
2022-12-23T20:46:57.935Z,21.45
2022-12-23T20:49:01.006Z,25.30
2022-12-23T20:51:07.544Z,20.77
2022-12-23T20:53:12.694Z,21.52
2022-12-23T20:55:15.452Z,21.75
2022-12-23T20:57:18.352Z,22.38
2022-12-23T20:59:20.946Z,21.35
2022-12-23T21:01:27.291Z,25.35
2022-12-23T21:03:29.882Z,27.15
2022-12-23T21:05:32.439Z,24.30
2022-12-23T21:07:34.887Z,21.38
2022-12-23T21:09:39.940Z,21.25
2022-12-23T21:11:44.939Z,24.40
2022-12-23T21:13:49.908Z,29.50
2022-12-23T21:16:00.949Z,25.58
2022-12-23T21:18:15.298Z,22.88
2022-12-23T21:20:17.951Z,19.52
2022-12-23T21:22:20.508Z,21.48
2022-12-23T21:24:23.824Z,24.23
2022-12-23T21:26:30.449Z,23.08
2022-12-23T21:28:37.756Z,21.33
2022-12-23T21:30:40.245Z,24.38
2022-12-23T21:32:43.065Z,22.13
2022-12-23T21:34:49.771Z,19.95
2022-12-23T21:36:52.415Z,25.52
2022-12-23T21:38:55.414Z,21.38
2022-12-23T21:41:06.530Z,21.10
2022-12-23T21:43:14.673Z,23.20
2022-12-23T21:45:17.380Z,21.27
2022-12-23T21:47:19.935Z,28.23
2022-12-23T21:49:22.741Z,17.65
2022-12-23T21:51:38.552Z,22.55
2022-12-23T21:53:43.762Z,22.15
2022-12-23T21:55:46.845Z,22.65
2022-12-23T21:57:49.390Z,27.30
2022-12-23T21:59:54.802Z,21.35
2022-12-23T22:01:58.354Z,18.80
2022-12-23T22:04:06.109Z,24.52
2022-12-23T22:06:11.008Z,17.92
2022-12-23T22:08:13.447Z,22.13
2022-12-23T22:10:16.201Z,19.83
2022-12-23T22:12:18.885Z,21.23
2022-12-23T22:14:21.428Z,19.48
2022-12-23T22:16:28.970Z,19.75
2022-12-23T22:18:31.656Z,21.95
2022-12-23T22:20:39.753Z,19.70
2022-12-23T22:22:45.627Z,21.35
2022-12-23T22:24:48.035Z,16.23
2022-12-23T22:26:50.558Z,19.23
2022-12-23T22:28:56.658Z,23.25
2022-12-23T22:31:02.613Z,20.45
2022-12-23T22:33:08.113Z,22.50
2022-12-23T22:35:10.843Z,21.00
2022-12-23T22:37:13.487Z,19.73
2022-12-23T22:39:30.449Z,21.92
2022-12-23T22:41:33.112Z,20.92
2022-12-23T22:43:35.671Z,18.90
2022-12-23T22:45:42.456Z,18.02
2022-12-23T22:47:47.972Z,24.10
2022-12-23T22:49:58.167Z,18.77
2022-12-23T22:52:00.734Z,25.15
2022-12-23T22:54:03.680Z,21.15
2022-12-23T22:56:07.552Z,19.45
2022-12-23T22:58:09.990Z,23.08
2022-12-23T23:00:15.913Z,17.77
2022-12-23T23:02:20.276Z,18.08
2022-12-23T23:04:23.301Z,19.73
2022-12-23T23:06:30.687Z,20.23
2022-12-23T23:08:34.580Z,20.73
2022-12-23T23:10:38.074Z,21.98
2022-12-23T23:12:40.887Z,19.57
2022-12-23T23:14:55.530Z,21.58
2022-12-23T23:17:04.040Z,19.10
2022-12-23T23:19:09.193Z,19.52
2022-12-23T23:21:13.717Z,18.20
2022-12-23T23:23:19.318Z,20.95
2022-12-23T23:25:23.642Z,18.88
2022-12-23T23:27:26.332Z,20.30
2022-12-23T23:29:28.914Z,25.33
2022-12-23T23:31:41.960Z,16.17
2022-12-23T23:33:47.845Z,18.13
2022-12-23T23:35:54.940Z,18.10
2022-12-23T23:37:57.424Z,18.83
2022-12-23T23:40:02.940Z,18.73
2022-12-23T23:42:05.845Z,20.95
2022-12-23T23:44:09.007Z,19.15
2022-12-23T23:46:14.346Z,21.52
2022-12-23T23:48:17.031Z,24.48
2022-12-23T23:50:21.274Z,21.80
2022-12-23T23:52:24.014Z,21.77
2022-12-23T23:54:26.595Z,19.63
2022-12-23T23:56:37.847Z,21.55
2022-12-23T23:58:43.582Z,21.58
